createdAt,value
2022-09-18T20:54:09.804Z,4.33
2022-09-18T20:57:12.348Z,4.03
2022-09-18T21:00:16.147Z,2.60
2022-09-18T21:03:20.082Z,2.67
2022-09-18T21:06:23.673Z,1.97
2022-09-18T21:09:27.832Z,2.10
2022-09-18T21:12:38.162Z,2.20
2022-09-18T21:15:46.054Z,2.23
2022-09-18T21:18:49.365Z,2.30
2022-09-18T21:21:51.908Z,1.97
2022-09-18T21:24:53.837Z,2.03
2022-09-18T21:27:56.509Z,1.87
2022-09-18T21:31:11.794Z,1.80
2022-09-18T21:34:16.767Z,2.10
2022-09-18T21:37:18.644Z,1.73
2022-09-18T21:40:20.797Z,2.23
2022-09-18T21:43:22.799Z,1.70
2022-09-18T21:46:25.370Z,1.83
2022-09-18T21:49:29.033Z,1.40
2022-09-18T21:52:31.219Z,2.00
2022-09-18T21:55:37.534Z,1.70
2022-09-18T21:58:40.850Z,1.73
2022-09-18T22:01:43.615Z,1.73
2022-09-18T22:04:46.581Z,1.87
2022-09-18T22:07:48.753Z,1.60
2022-09-18T22:10:50.991Z,1.47
2022-09-18T22:14:00.439Z,1.60
2022-09-18T22:17:05.301Z,1.90
2022-09-18T22:20:07.749Z,1.70
2022-09-18T22:23:09.775Z,1.60
2022-09-18T22:26:11.690Z,2.00
2022-09-18T22:29:17.711Z,2.03
2022-09-18T22:32:19.761Z,1.40
2022-09-18T22:35:21.892Z,1.60
2022-09-18T22:38:23.734Z,1.60
2022-09-18T22:41:25.914Z,1.70
2022-09-18T22:44:28.012Z,1.67
2022-09-18T22:47:30.202Z,1.33
2022-09-18T22:50:32.050Z,1.50
2022-09-18T22:53:35.234Z,1.30
2022-09-18T22:56:45.991Z,1.30
2022-09-18T22:59:48.054Z,1.50
2022-09-18T23:02:50.178Z,1.40
2022-09-18T23:05:52.779Z,2.03
2022-09-18T23:08:56.336Z,1.27
2022-09-18T23:11:59.304Z,1.30
2022-09-18T23:15:01.273Z,1.50
2022-09-18T23:18:03.427Z,1.27
2022-09-18T23:21:08.544Z,1.50
2022-09-18T23:24:10.800Z,1.27
2022-09-18T23:27:13.365Z,1.40
2022-09-18T23:30:15.581Z,1.47
2022-09-18T23:33:17.492Z,1.20
2022-09-18T23:36:31.411Z,1.33
2022-09-18T23:39:34.721Z,1.30
2022-09-18T23:42:36.986Z,1.27
2022-09-18T23:45:38.919Z,1.60
2022-09-18T23:48:41.502Z,1.23
2022-09-18T23:51:47.933Z,1.60
2022-09-18T23:54:50.175Z,1.30
2022-09-18T23:57:52.006Z,1.40
